Time;durP1;ratioP1;P1;durP2;ratioP2;P2;SDS_P1;SDS_P2;PMS_P1;PMS_P2;Temp;Humidity;BMP_temperature;BMP_pressure;BME280_temperature;BME280_humidity;BME280_pressure;Samples;Min_cycle;Max_cycle;Signal;HPM_P1;HPM_P2
2022/10/30 00:01:56;;;;;;;0.40;0.20;;;22.90;61.60;;;;;;6260423;28;20102;-55
2022/10/30 00:04:58;;;;;;;0.30;0.25;;;22.80;61.30;;;;;;6260569;28;20044;-54
2022/10/30 00:08:00;;;;;;;0.90;0.40;;;22.70;61.20;;;;;;6267009;28;20039;-53
2022/10/30 00:11:06;;;;;;;0.30;0.30;;;22.80;61.50;;;;;;6261753;28;20074;-55
2022/10/30 00:14:08;;;;;;;0.20;0.20;;;23.00;61.30;;;;;;6236015;28;20789;-53
2022/10/30 00:17:09;;;;;;;0.40;0.40;;;22.80;61.40;;;;;;6262352;28;20786;-54
2022/10/30 00:20:10;;;;;;;;;;;23.10;61.60;;;;;;6263015;28;20052;-54
2022/10/30 00:23:13;;;;;;;0.20;0.10;;;22.80;61.60;;;;;;6266128;28;20812;-55
2022/10/30 00:26:15;;;;;;;0.43;0.22;;;22.70;61.20;;;;;;6252276;28;20811;-56
2022/10/30 00:29:17;;;;;;;0.45;0.22;;;23.00;61.40;;;;;;6246443;28;20047;-56
2022/10/30 00:32:18;;;;;;;;;;;22.70;61.40;;;;;;6264673;28;20904;-55
2022/10/30 00:35:20;;;;;;;0.20;0.10;;;23.40;62.00;;;;;;6264117;28;20022;-54
2022/10/30 00:38:22;;;;;;;0.60;0.30;;;22.90;61.50;;;;;;6266926;28;20477;-53
2022/10/30 00:41:24;;;;;;;0.20;0.20;;;23.10;61.60;;;;;;6268553;28;20234;-53
2022/10/30 00:44:44;;;;;;;0.25;0.22;;;22.70;61.50;;;;;;6247229;28;20048;-55
2022/10/30 00:47:50;;;;;;;0.22;0.20;;;23.10;61.60;;;;;;6247656;28;20552;-50
2022/10/30 00:50:53;;;;;;;0.40;0.22;;;22.60;61.30;;;;;;6261687;28;20139;-53
2022/10/30 00:53:57;;;;;;;0.25;0.20;;;23.00;61.60;;;;;;6260652;28;20040;-55
2022/10/30 00:57:00;;;;;;;0.40;0.10;;;22.80;61.50;;;;;;6253465;28;20142;-54
2022/10/30 01:00:03;;;;;;;0.20;0.20;;;22.80;61.70;;;;;;6263011;28;20044;-55
2022/10/30 01:03:05;;;;;;;0.50;0.20;;;22.90;61.50;;;;;;6249405;28;20044;-55
2022/10/30 01:06:11;;;;;;;0.40;0.30;;;22.60;61.60;;;;;;6264823;28;20032;-54
2022/10/30 01:09:14;;;;;;;0.30;0.20;;;22.30;61.20;;;;;;6262861;28;20926;-54
2022/10/30 01:12:15;;;;;;;0.30;0.20;;;23.10;61.70;;;;;;6261062;28;20048;-54
2022/10/30 01:15:22;;;;;;;0.28;0.10;;;22.80;61.80;;;;;;6256332;28;20053;-53
2022/10/30 01:18:33;;;;;;;0.50;0.30;;;23.00;61.70;;;;;;6254600;28;20147;-51
2022/10/30 01:21:48;;;;;;;0.50;0.28;;;22.90;61.60;;;;;;6255645;28;20044;-51
2022/10/30 01:25:02;;;;;;;0.43;0.30;;;23.10;61.70;;;;;;6255704;28;20566;-49
2022/10/30 01:28:14;;;;;;;0.20;0.20;;;22.80;61.60;;;;;;6261162;28;20052;-54
2022/10/30 01:31:30;;;;;;;0.13;0.13;;;23.00;61.80;;;;;;6254426;28;20511;-49
2022/10/30 01:34:41;;;;;;;0.52;0.30;;;22.90;61.80;;;;;;6250771;28;20305;-53
2022/10/30 01:37:56;;;;;;;0.20;0.10;;;22.70;61.70;;;;;;6211947;28;20516;-52
2022/10/30 01:40:59;;;;;;;0.30;0.20;;;23.10;61.80;;;;;;6256380;28;20474;-53
2022/10/30 01:44:05;;;;;;;0.30;0.30;;;22.50;61.70;;;;;;6255009;28;20495;-51
2022/10/30 01:47:26;;;;;;;0.40;0.30;;;22.80;61.80;;;;;;6240833;28;20096;-48
2022/10/30 01:50:37;;;;;;;0.28;0.20;;;23.20;62.00;;;;;;6256749;28;20883;-49
2022/10/30 01:53:48;;;;;;;0.20;0.10;;;22.60;61.60;;;;;;6259455;28;20157;-52
2022/10/30 01:56:54;;;;;;;;;;;22.90;62.00;;;;;;6256632;28;20515;-53
2022/10/30 02:00:00;;;;;;;0.50;0.30;;;22.50;61.90;;;;;;6257922;28;19974;-53
2022/10/30 02:03:04;;;;;;;0.40;0.20;;;23.00;62.00;;;;;;6222400;28;20273;-51
2022/10/30 02:06:05;;;;;;;0.65;0.30;;;22.70;61.90;;;;;;6255937;28;20076;-48
2022/10/30 02:09:10;;;;;;;0.50;0.20;;;22.90;62.20;;;;;;6249533;28;20076;-53
2022/10/30 02:12:22;;;;;;;0.30;0.20;;;22.70;62.10;;;;;;6255534;28;20044;-49
2022/10/30 02:15:23;;;;;;;0.20;0.20;;;23.00;62.10;;;;;;6249527;28;20190;-51
2022/10/30 02:18:25;;;;;;;;;;;23.00;62.30;;;;;;6256291;28;20040;-53
2022/10/30 02:21:27;;;;;;;0.20;0.20;;;22.70;62.50;;;;;;6256214;28;20166;-49
2022/10/30 02:24:30;;;;;;;0.30;0.20;;;23.10;62.50;;;;;;6253814;28;20356;-51
2022/10/30 02:27:31;;;;;;;0.20;0.20;;;23.00;62.30;;;;;;6239836;28;20451;-52
2022/10/30 02:30:32;;;;;;;;;;;22.60;62.30;;;;;;6252575;28;20498;-53
2022/10/30 02:33:36;;;;;;;0.22;0.22;;;22.60;62.50;;;;;;6250513;28;19936;-51
2022/10/30 02:36:39;;;;;;;0.30;0.20;;;22.90;62.50;;;;;;6256317;28;20393;-52
2022/10/30 02:39:40;;;;;;;0.20;0.20;;;22.70;62.50;;;;;;6255275;28;20048;-51
2022/10/30 02:42:42;;;;;;;0.20;0.13;;;22.50;62.70;;;;;;6253116;28;20040;-50
2022/10/30 02:45:49;;;;;;;0.22;0.20;;;22.70;62.60;;;;;;6253090;28;20055;-51
2022/10/30 02:48:51;;;;;;;0.82;0.30;;;23.10;62.90;;;;;;6236471;28;20048;-52
2022/10/30 02:51:53;;;;;;;0.25;0.20;;;22.90;62.30;;;;;;6243080;28;20296;-50
2022/10/30 02:54:55;;;;;;;0.35;0.20;;;22.90;63.00;;;;;;6255490;28;20509;-49
2022/10/30 02:57:56;;;;;;;0.35;0.28;;;22.90;63.20;;;;;;6254551;28;20051;-49
2022/10/30 03:01:03;;;;;;;;;;;22.60;63.10;;;;;;6252648;28;20126;-49
2022/10/30 03:04:05;;;;;;;0.32;0.32;;;22.80;63.20;;;;;;6251636;28;19937;-52
2022/10/30 03:07:07;;;;;;;0.10;0.10;;;23.00;63.40;;;;;;6253318;28;20527;-48
2022/10/30 03:10:09;;;;;;;0.45;0.20;;;22.70;63.20;;;;;;6253278;28;20036;-51
2022/10/30 03:13:11;;;;;;;0.22;0.20;;;22.80;63.40;;;;;;6252627;28;20048;-50
2022/10/30 03:16:14;;;;;;;;;;;22.90;63.40;;;;;;6256974;28;20040;-52
2022/10/30 03:19:15;;;;;;;0.47;0.28;;;23.10;63.80;;;;;;6247824;28;20244;-50
2022/10/30 03:22:17;;;;;;;0.32;0.20;;;22.70;63.40;;;;;;6252702;28;20950;-53
2022/10/30 03:25:22;;;;;;;0.55;0.35;;;22.80;63.50;;;;;;6252919;28;20408;-52
2022/10/30 03:28:30;;;;;;;0.20;0.10;;;23.20;63.70;;;;;;6256352;28;20612;-51
2022/10/30 03:31:32;;;;;;;0.30;0.20;;;22.50;63.30;;;;;;6237814;28;20062;-52
2022/10/30 03:34:53;;;;;;;;;;;22.60;63.50;;;;;;6254321;28;20464;-50
2022/10/30 03:37:55;;;;;;;;;;;22.60;63.80;;;;;;6255192;28;19924;-52
2022/10/30 03:40:57;;;;;;;0.20;0.20;;;23.00;64.10;;;;;;6252745;28;19928;-52
2022/10/30 03:43:59;;;;;;;0.35;0.20;;;22.50;63.40;;;;;;6252584;28;20047;-53
2022/10/30 03:47:00;;;;;;;0.35;0.30;;;22.80;63.60;;;;;;6255975;28;20814;-51
2022/10/30 03:50:08;;;;;;;0.52;0.10;;;22.90;63.60;;;;;;6255846;28;20209;-52
2022/10/30 03:53:11;;;;;;;0.30;0.30;;;22.90;63.50;;;;;;6255907;28;20047;-52
2022/10/30 03:56:13;;;;;;;0.40;0.20;;;22.80;63.10;;;;;;6236974;28;20437;-55
2022/10/30 03:59:21;;;;;;;0.45;0.30;;;22.90;63.20;;;;;;6251702;28;20191;-50
2022/10/30 04:02:45;;;;;;;0.20;0.17;;;22.80;62.90;;;;;;6254154;28;20052;-51
2022/10/30 04:05:49;;;;;;;0.20;0.20;;;22.70;77.30;;;;;;6224386;28;20192;-51
2022/10/30 04:08:54;;;;;;;0.13;0.10;;;22.60;62.60;;;;;;6249922;28;20368;-49
2022/10/30 04:11:56;;;;;;;0.30;0.20;;;22.30;62.20;;;;;;6248703;28;20551;-50
2022/10/30 04:14:57;;;;;;;0.10;0.10;;;23.00;62.50;;;;;;6252472;28;20045;-51
2022/10/30 04:17:59;;;;;;;;;;;22.70;62.10;;;;;;6246785;28;20248;-51
2022/10/30 04:21:01;;;;;;;0.10;0.10;;;22.40;61.90;;;;;;6242935;28;20046;-53
2022/10/30 04:24:04;;;;;;;0.10;0.10;;;22.50;61.90;;;;;;6242539;28;20270;-49
2022/10/30 04:27:08;;;;;;;0.60;0.10;;;22.90;61.70;;;;;;6246086;28;20139;-50
2022/10/30 04:30:11;;;;;;;0.50;0.10;;;22.60;61.40;;;;;;6244161;28;20802;-50
2022/10/30 04:33:13;;;;;;;0.30;0.10;;;22.30;60.80;;;;;;6223367;28;20156;-52
2022/10/30 04:36:16;;;;;;;0.47;0.10;;;22.40;60.80;;;;;;6244650;28;20043;-50
2022/10/30 04:39:20;;;;;;;0.10;0.10;;;23.20;61.10;;;;;;6246065;28;20241;-50
2022/10/30 04:42:28;;;;;;;0.22;0.20;;;22.80;60.80;;;;;;6245266;28;20053;-51
2022/10/30 04:45:30;;;;;;;0.20;0.10;;;22.50;60.40;;;;;;6243347;28;20191;-52
2022/10/30 04:48:33;;;;;;;0.45;0.20;;;22.50;60.20;;;;;;6249686;28;20572;-53
2022/10/30 04:51:35;;;;;;;0.20;0.20;;;22.50;60.20;;;;;;6242065;28;20543;-50
2022/10/30 04:54:39;;;;;;;0.40;0.30;;;22.90;60.40;;;;;;6253529;28;20048;-53
2022/10/30 04:57:41;;;;;;;0.20;0.20;;;22.50;60.10;;;;;;6249975;28;20333;-51
2022/10/30 05:00:42;;;;;;;0.10;0.10;;;22.90;60.10;;;;;;6255950;28;20332;-50
2022/10/30 05:03:46;;;;;;;0.10;0.10;;;22.80;60.00;;;;;;6250937;28;20052;-50
2022/10/30 05:06:51;;;;;;;0.10;0.10;;;22.30;60.00;;;;;;6251109;28;20155;-52
2022/10/30 05:09:53;;;;;;;;;;;22.70;60.00;;;;;;6246179;28;20146;-49
2022/10/30 05:12:58;;;;;;;0.10;0.10;;;22.40;60.00;;;;;;6250574;28;20773;-52
2022/10/30 05:16:01;;;;;;;0.15;0.15;;;22.50;59.90;;;;;;6250177;28;20652;-51
2022/10/30 05:19:02;;;;;;;;;;;22.40;59.80;;;;;;6248178;28;20468;-51
2022/10/30 05:22:03;;;;;;;0.10;0.10;;;22.20;60.00;;;;;;6247364;28;20842;-48
2022/10/30 05:25:06;;;;;;;0.10;0.10;;;22.80;60.00;;;;;;6247327;28;20079;-51
2022/10/30 05:28:09;;;;;;;0.10;0.10;;;22.20;59.60;;;;;;6249482;28;20050;-53
2022/10/30 05:31:18;;;;;;;0.10;0.10;;;22.70;60.00;;;;;;6243820;28;20410;-51
2022/10/30 05:34:39;;;;;;;0.10;0.10;;;22.60;59.90;;;;;;6247053;28;20501;-53
2022/10/30 05:37:41;;;;;;;0.20;0.10;;;22.60;60.00;;;;;;6253657;28;20048;-50
2022/10/30 05:40:45;;;;;;;;;;;22.50;59.80;;;;;;6252567;28;20036;-53
2022/10/30 05:43:49;;;;;;;0.20;0.10;;;22.50;60.00;;;;;;6250915;28;20184;-51
2022/10/30 05:46:51;;;;;;;0.32;0.20;;;22.60;59.80;;;;;;6253493;28;20109;-51
2022/10/30 05:49:59;;;;;;;0.50;0.28;;;22.70;59.80;;;;;;6252848;28;20497;-55
2022/10/30 05:53:03;;;;;;;0.25;0.10;;;22.50;59.70;;;;;;6249773;28;20045;-50
2022/10/30 05:56:05;;;;;;;0.65;0.20;;;22.60;59.50;;;;;;6226558;28;20734;-50
2022/10/30 05:59:09;;;;;;;0.52;0.20;;;22.60;59.40;;;;;;6250174;28;20077;-53
2022/10/30 06:02:10;;;;;;;0.38;0.10;;;22.30;59.30;;;;;;6248337;28;20324;-50
2022/10/30 06:05:12;;;;;;;0.38;0.10;;;22.40;59.30;;;;;;6248648;28;20444;-53
2022/10/30 06:08:15;;;;;;;0.03;0.03;;;22.30;59.10;;;;;;6246931;28;20043;-51
2022/10/30 06:11:18;;;;;;;0.00;0.00;;;22.60;59.10;;;;;;6248176;28;20102;-51
2022/10/30 06:14:26;;;;;;;0.55;0.20;;;22.30;59.00;;;;;;6250518;28;20074;-50
2022/10/30 06:17:29;;;;;;;0.17;0.17;;;22.20;58.90;;;;;;6254410;28;20630;-54
2022/10/30 06:20:48;;;;;;;0.20;0.20;;;22.90;59.10;;;;;;6243707;28;20782;-50
2022/10/30 06:24:04;;;;;;;0.10;0.10;;;22.40;59.00;;;;;;6250500;28;20453;-53
2022/10/30 06:27:18;;;;;;;0.13;0.10;;;22.40;58.80;;;;;;6251650;28;20053;-50
2022/10/30 06:30:20;;;;;;;0.20;0.20;;;22.30;58.80;;;;;;6250169;28;20456;-50
2022/10/30 06:33:22;;;;;;;0.17;0.10;;;22.10;58.60;;;;;;6236886;28;20293;-50
2022/10/30 06:36:25;;;;;;;0.03;0.00;;;22.00;58.60;;;;;;6224740;28;20056;-53
2022/10/30 06:39:27;;;;;;;0.10;0.10;;;22.10;58.60;;;;;;6250649;28;20483;-51
2022/10/30 06:42:48;;;;;;;0.20;0.20;;;22.50;58.80;;;;;;6237072;28;20048;-52
2022/10/30 06:46:04;;;;;;;0.38;0.15;;;22.50;58.50;;;;;;6231535;28;20472;-50
2022/10/30 06:49:09;;;;;;;0.20;0.10;;;22.90;58.80;;;;;;6248346;28;20044;-49
2022/10/30 06:52:10;;;;;;;;;;;22.20;58.50;;;;;;6236079;28;20201;-51
2022/10/30 06:55:12;;;;;;;0.00;0.00;;;22.10;58.70;;;;;;6243178;28;20089;-52
2022/10/30 06:58:37;;;;;;;0.10;0.10;;;22.50;58.90;;;;;;6242069;28;21045;-49
2022/10/30 07:01:43;;;;;;;0.10;0.10;;;22.60;58.70;;;;;;6247648;28;20435;-51
2022/10/30 07:04:56;;;;;;;0.20;0.10;;;22.30;58.60;;;;;;6246603;28;20586;-50
2022/10/30 07:07:58;;;;;;;0.32;0.20;;;22.60;58.90;;;;;;6247685;28;20083;-51
2022/10/30 07:11:00;;;;;;;0.20;0.15;;;22.60;58.60;;;;;;6234175;28;20293;-52
2022/10/30 07:14:14;;;;;;;0.10;0.10;;;22.30;58.60;;;;;;6245728;28;20297;-53
2022/10/30 07:17:33;;;;;;;0.20;0.10;;;22.30;58.40;;;;;;6245671;28;20388;-50
2022/10/30 07:20:42;;;;;;;0.20;0.10;;;22.20;58.40;;;;;;6245567;28;20048;-55
2022/10/30 07:23:44;;;;;;;0.10;0.10;;;22.50;58.50;;;;;;6246342;28;20367;-54
2022/10/30 07:27:03;;;;;;;0.10;0.10;;;22.60;58.40;;;;;;6250160;28;20040;-51
2022/10/30 07:30:16;;;;;;;0.10;0.10;;;22.60;58.40;;;;;;6245719;28;20050;-50
2022/10/30 07:33:38;;;;;;;0.10;0.10;;;22.20;58.00;;;;;;6247630;28;20052;-52
2022/10/30 07:36:50;;;;;;;0.45;0.13;;;22.80;58.50;;;;;;6250059;28;20052;-52
2022/10/30 07:40:04;;;;;;;0.10;0.10;;;22.60;58.40;;;;;;6247477;28;20052;-51
2022/10/30 07:43:23;;;;;;;0.10;0.10;;;22.30;58.00;;;;;;6225216;28;20056;-52
2022/10/30 07:46:44;;;;;;;0.10;0.10;;;23.10;58.60;;;;;;6240337;28;20476;-52
2022/10/30 07:50:04;;;;;;;0.10;0.10;;;22.20;58.10;;;;;;6238160;28;20232;-52
2022/10/30 07:53:07;;;;;;;0.10;0.10;;;22.60;58.20;;;;;;6237463;28;20055;-51
2022/10/30 07:56:08;;;;;;;;;;;22.70;58.40;;;;;;6245433;28;20047;-50
2022/10/30 07:59:30;;;;;;;0.10;0.10;;;22.90;58.70;;;;;;6247364;28;19953;-48
2022/10/30 08:02:55;;;;;;;0.20;0.10;;;22.90;58.40;;;;;;6232552;28;20083;-51
2022/10/30 08:06:07;;;;;;;0.20;0.10;;;22.60;58.20;;;;;;6225662;28;20052;-51
2022/10/30 08:09:14;;;;;;;0.32;0.17;;;22.30;58.30;;;;;;6195138;28;20928;-50
2022/10/30 08:12:15;;;;;;;;;;;22.50;58.40;;;;;;6236683;28;20127;-52
2022/10/30 08:15:16;;;;;;;0.10;0.00;;;22.60;58.60;;;;;;6237057;28;20901;-49
2022/10/30 08:18:18;;;;;;;;;;;22.70;58.50;;;;;;6248342;28;20241;-51
2022/10/30 08:21:24;;;;;;;0.13;0.10;;;22.40;58.50;;;;;;6243211;28;19928;-51
2022/10/30 08:24:32;;;;;;;0.05;0.05;;;22.60;58.30;;;;;;6247997;28;20848;-54
2022/10/30 08:27:35;;;;;;;0.10;0.10;;;22.50;58.40;;;;;;6246792;28;20047;-53
2022/10/30 08:30:38;;;;;;;0.10;0.10;;;22.10;58.20;;;;;;6236855;28;20142;-49
2022/10/30 08:33:43;;;;;;;0.10;0.10;;;22.60;58.40;;;;;;6244512;28;20032;-50
2022/10/30 08:37:04;;;;;;;0.00;0.00;;;22.80;58.50;;;;;;6245942;28;20473;-49
2022/10/30 08:40:07;;;;;;;0.10;0.10;;;22.30;58.20;;;;;;6227097;28;20228;-52
2022/10/30 08:43:14;;;;;;;0.10;0.10;;;22.60;58.10;;;;;;6249245;28;20100;-51
2022/10/30 08:46:16;;;;;;;0.10;0.10;;;22.70;58.40;;;;;;6238888;28;20184;-51
2022/10/30 08:49:18;;;;;;;0.10;0.10;;;22.80;58.40;;;;;;6241804;28;20044;-51
2022/10/30 08:52:27;;;;;;;0.10;0.10;;;22.70;58.30;;;;;;6233690;28;20049;-54
2022/10/30 08:55:31;;;;;;;0.20;0.10;;;22.80;58.30;;;;;;6243235;28;20983;-48
2022/10/30 08:58:36;;;;;;;0.20;0.20;;;22.70;58.20;;;;;;6230031;28;20059;-52
2022/10/30 09:01:38;;;;;;;0.28;0.17;;;22.40;58.10;;;;;;6235610;28;20044;-53
2022/10/30 09:05:00;;;;;;;;;;;22.90;58.50;;;;;;6250644;28;20047;-51
2022/10/30 09:08:22;;;;;;;;;;;22.90;58.60;;;;;;6250738;28;20296;-52
2022/10/30 09:11:43;;;;;;;0.05;0.00;;;22.40;58.50;;;;;;6243138;28;21548;-52
2022/10/30 09:14:45;;;;;;;0.10;0.10;;;22.80;58.60;;;;;;6237350;28;20036;-51
2022/10/30 09:17:46;;;;;;;;;;;22.80;58.40;;;;;;6243113;28;20045;-51
2022/10/30 09:20:49;;;;;;;0.10;0.10;;;22.30;58.40;;;;;;6241374;28;20524;-51
2022/10/30 09:23:50;;;;;;;0.10;0.00;;;22.60;58.40;;;;;;6242000;28;20454;-51
2022/10/30 09:27:12;;;;;;;0.17;0.17;;;22.80;58.50;;;;;;6241566;28;20337;-53
2022/10/30 09:30:21;;;;;;;0.17;0.10;;;22.80;58.50;;;;;;6240908;28;20313;-52
2022/10/30 09:33:27;;;;;;;0.10;0.10;;;22.80;58.50;;;;;;6220031;28;20428;-50
2022/10/30 09:36:49;;;;;;;0.10;0.10;;;22.60;58.40;;;;;;6247594;28;20040;-54
2022/10/30 09:39:52;;;;;;;0.10;0.10;;;22.80;58.50;;;;;;6227951;28;20337;-53
2022/10/30 09:43:01;;;;;;;0.05;0.05;;;22.80;58.40;;;;;;6245057;28;20762;-54
2022/10/30 09:46:19;;;;;;;0.20;0.20;;;22.80;58.30;;;;;;6243105;28;20376;-53
2022/10/30 09:49:34;;;;;;;0.35;0.10;;;22.80;58.30;;;;;;6240074;28;20075;-51
2022/10/30 09:52:43;;;;;;;0.20;0.10;;;22.80;58.40;;;;;;6235123;28;20326;-51
2022/10/30 09:55:50;;;;;;;0.10;0.10;;;22.70;58.10;;;;;;6244931;28;20538;-53
2022/10/30 09:59:00;;;;;;;0.10;0.10;;;22.40;58.00;;;;;;6242312;28;20445;-50
2022/10/30 10:02:18;;;;;;;0.10;0.10;;;22.90;58.40;;;;;;6242197;28;20474;-51
2022/10/30 10:05:25;;;;;;;0.10;0.10;;;22.70;58.30;;;;;;6243003;28;20056;-51
2022/10/30 10:08:52;;;;;;;0.20;0.20;;;22.60;58.30;;;;;;6228048;28;20060;-51
2022/10/30 10:12:31;;;;;;;0.10;0.10;;;22.60;58.30;;;;;;6232285;28;20044;-50
2022/10/30 10:15:38;;;;;;;0.10;0.10;;;23.10;58.60;;;;;;6246082;28;20459;-53
2022/10/30 10:18:47;;;;;;;0.28;0.10;;;22.70;58.40;;;;;;6244903;28;20335;-54
2022/10/30 10:21:54;;;;;;;0.10;0.10;;;22.60;58.40;;;;;;6245920;28;20912;-51
2022/10/30 10:24:56;;;;;;;0.10;0.10;;;22.60;58.30;;;;;;6227048;28;20050;-51
2022/10/30 10:28:14;;;;;;;0.20;0.20;;;23.10;58.70;;;;;;6243377;28;20150;-50
2022/10/30 10:31:30;;;;;;;0.10;0.10;;;23.00;58.70;;;;;;6238017;28;20326;-49
2022/10/30 10:34:47;;;;;;;0.10;0.10;;;22.70;58.40;;;;;;6222538;28;20899;-49
2022/10/30 10:37:58;;;;;;;0.20;0.10;;;22.80;58.50;;;;;;6241280;28;20611;-55
2022/10/30 10:41:13;;;;;;;0.30;0.22;;;23.00;58.60;;;;;;6232311;28;20317;-53
2022/10/30 10:44:27;;;;;;;0.22;0.10;;;23.00;58.70;;;;;;6238125;28;20125;-51
2022/10/30 10:47:42;;;;;;;0.10;0.10;;;22.90;58.50;;;;;;6237213;28;20591;-48
2022/10/30 10:50:48;;;;;;;0.10;0.10;;;22.60;58.50;;;;;;6233569;28;20810;-54
2022/10/30 10:53:54;;;;;;;0.30;0.10;;;22.80;58.70;;;;;;6243140;28;20298;-50
2022/10/30 10:56:58;;;;;;;0.38;0.15;;;22.90;58.80;;;;;;6223099;28;20361;-51
2022/10/30 11:00:04;;;;;;;0.10;0.10;;;23.10;59.00;;;;;;6245274;28;20037;-50
2022/10/30 11:03:12;;;;;;;0.20;0.10;;;23.10;59.00;;;;;;6232166;28;20292;-51
2022/10/30 11:06:19;;;;;;;0.45;0.20;;;23.00;59.00;;;;;;6238083;28;20040;-52
2022/10/30 11:09:22;;;;;;;0.13;0.13;;;23.10;59.00;;;;;;6241592;28;20489;-52
2022/10/30 11:12:29;;;;;;;0.10;0.10;;;22.60;58.90;;;;;;6232396;28;20071;-50
2022/10/30 11:15:47;;;;;;;0.20;0.20;;;22.90;59.00;;;;;;6221407;28;20397;-53
2022/10/30 11:18:54;;;;;;;0.28;0.10;;;23.10;59.20;;;;;;6243575;28;20060;-53
2022/10/30 11:21:56;;;;;;;0.22;0.10;;;23.00;59.10;;;;;;6239894;28;20051;-52
2022/10/30 11:25:18;;;;;;;0.10;0.10;;;23.20;59.30;;;;;;6240756;28;20055;-51
2022/10/30 11:28:33;;;;;;;0.10;0.10;;;22.90;59.10;;;;;;6240053;28;20155;-52
2022/10/30 11:31:39;;;;;;;0.00;0.00;;;23.20;59.30;;;;;;6210673;28;20299;-53
2022/10/30 11:34:40;;;;;;;0.25;0.10;;;22.90;59.10;;;;;;6229409;28;20149;-52
2022/10/30 11:37:42;;;;;;;;;;;23.00;59.30;;;;;;6245551;28;20102;-49
2022/10/30 11:40:45;;;;;;;;;;;23.00;59.50;;;;;;6223134;28;20472;-50
2022/10/30 11:43:48;;;;;;;0.17;0.10;;;22.90;59.40;;;;;;6246242;28;20195;-53
2022/10/30 11:46:50;;;;;;;0.28;0.10;;;23.20;59.40;;;;;;6247990;28;20049;-51
2022/10/30 11:49:55;;;;;;;0.17;0.15;;;23.50;59.60;;;;;;6240581;28;20970;-50
2022/10/30 11:52:59;;;;;;;0.20;0.20;;;23.10;59.40;;;;;;6231998;28;20303;-49
2022/10/30 11:56:03;;;;;;;0.10;0.10;;;23.10;59.40;;;;;;6242416;28;20289;-51
2022/10/30 11:59:06;;;;;;;0.38;0.10;;;22.70;59.20;;;;;;6227835;28;20353;-51
2022/10/30 12:02:25;;;;;;;0.10;0.10;;;23.20;59.60;;;;;;6239392;28;20912;-50
2022/10/30 12:05:31;;;;;;;0.10;0.10;;;23.30;59.70;;;;;;6225659;28;20532;-50
2022/10/30 12:08:33;;;;;;;0.30;0.10;;;23.00;59.40;;;;;;6228701;28;20418;-52
2022/10/30 12:11:36;;;;;;;0.10;0.10;;;23.30;59.70;;;;;;6238604;28;20048;-48
2022/10/30 12:14:38;;;;;;;0.10;0.10;;;23.10;59.50;;;;;;6227933;28;20236;-51
2022/10/30 12:17:40;;;;;;;0.20;0.10;;;23.40;59.70;;;;;;6241579;28;20161;-51
2022/10/30 12:20:47;;;;;;;0.10;0.10;;;23.00;59.70;;;;;;6235847;28;20054;-51
2022/10/30 12:23:53;;;;;;;0.10;0.10;;;23.20;59.80;;;;;;6217460;28;20630;-51
2022/10/30 12:26:56;;;;;;;0.10;0.10;;;23.00;59.60;;;;;;6241097;28;20122;-51
2022/10/30 12:30:05;;;;;;;0.10;0.10;;;23.20;59.80;;;;;;6239224;28;20595;-49
2022/10/30 12:33:16;;;;;;;0.20;0.10;;;23.00;59.70;;;;;;6221155;28;20089;-50
2022/10/30 12:36:21;;;;;;;0.10;0.10;;;22.80;59.60;;;;;;6220628;28;20155;-54
2022/10/30 12:39:30;;;;;;;0.20;0.20;;;23.30;60.00;;;;;;6221755;28;20669;-54
2022/10/30 12:42:38;;;;;;;0.20;0.20;;;23.10;60.00;;;;;;6230591;28;20441;-51
2022/10/30 12:45:43;;;;;;;0.10;0.10;;;23.20;60.00;;;;;;6246207;28;20797;-51
2022/10/30 12:48:52;;;;;;;0.10;0.10;;;22.90;59.90;;;;;;6235645;28;20583;-51
2022/10/30 12:51:57;;;;;;;0.38;0.20;;;23.30;60.80;;;;;;6210097;28;20381;-53
2022/10/30 12:55:02;;;;;;;0.55;0.20;;;23.00;60.10;;;;;;6212464;28;20273;-49
2022/10/30 12:58:16;;;;;;;0.10;0.10;;;23.20;60.10;;;;;;6212034;28;20158;-48
2022/10/30 13:01:25;;;;;;;0.20;0.20;;;23.00;60.10;;;;;;6216153;28;20615;-51
2022/10/30 13:04:33;;;;;;;0.10;0.10;;;23.30;60.30;;;;;;6237807;28;20103;-52
2022/10/30 13:07:40;;;;;;;0.10;0.10;;;22.80;60.00;;;;;;6227563;28;20050;-51
2022/10/30 13:10:46;;;;;;;0.40;0.30;;;23.00;60.10;;;;;;6217927;28;20050;-53
2022/10/30 13:13:50;;;;;;;0.20;0.20;;;23.30;60.50;;;;;;6217374;28;20496;-49
2022/10/30 13:16:52;;;;;;;0.20;0.20;;;23.00;60.30;;;;;;6235096;28;21126;-51
2022/10/30 13:19:54;;;;;;;0.10;0.10;;;22.90;60.20;;;;;;6238877;28;20270;-53
2022/10/30 13:22:59;;;;;;;0.20;0.10;;;23.40;60.60;;;;;;6240522;28;20889;-51
2022/10/30 13:26:09;;;;;;;0.13;0.13;;;23.50;60.50;;;;;;6232821;28;20052;-52
2022/10/30 13:29:23;;;;;;;0.20;0.10;;;23.40;60.50;;;;;;6235622;28;20390;-51
2022/10/30 13:32:35;;;;;;;0.20;0.20;;;23.30;60.40;;;;;;6221224;28;20044;-52
2022/10/30 13:35:47;;;;;;;0.30;0.30;;;23.30;60.40;;;;;;6232702;28;20684;-53
2022/10/30 13:38:57;;;;;;;0.25;0.10;;;23.10;60.30;;;;;;6228183;28;20055;-50
2022/10/30 13:42:13;;;;;;;0.15;0.10;;;23.00;60.30;;;;;;6231716;28;20424;-50
2022/10/30 13:45:36;;;;;;;0.10;0.10;;;23.00;60.20;;;;;;6227356;28;20764;-50
2022/10/30 13:48:54;;;;;;;0.15;0.10;;;23.10;60.40;;;;;;6227935;28;20542;-49
2022/10/30 13:52:05;;;;;;;0.20;0.10;;;22.80;60.20;;;;;;6235379;28;20719;-51
2022/10/30 13:55:15;;;;;;;0.17;0.10;;;23.50;60.60;;;;;;6232636;28;20566;-53
2022/10/30 13:58:25;;;;;;;0.03;0.03;;;23.30;60.40;;;;;;6232549;28;20098;-48
2022/10/30 14:01:33;;;;;;;0.20;0.10;;;22.90;60.30;;;;;;6197917;28;20044;-49
2022/10/30 14:04:42;;;;;;;0.55;0.10;;;23.20;60.40;;;;;;6230336;28;20292;-49
2022/10/30 14:07:56;;;;;;;0.30;0.22;;;23.30;60.50;;;;;;6229000;28;20880;-51
2022/10/30 14:10:58;;;;;;;0.40;0.10;;;23.30;60.50;;;;;;6220173;28;20044;-51
2022/10/30 14:14:05;;;;;;;0.10;0.10;;;23.30;60.50;;;;;;6233758;28;20352;-52
2022/10/30 14:17:11;;;;;;;0.10;0.10;;;23.10;60.40;;;;;;6211572;28;20166;-50
2022/10/30 14:20:27;;;;;;;0.28;0.20;;;22.90;60.10;;;;;;6202055;28;20191;-53
2022/10/30 14:23:33;;;;;;;0.10;0.10;;;23.10;60.30;;;;;;6228628;28;20048;-51
2022/10/30 14:26:35;;;;;;;0.10;0.10;;;23.30;60.50;;;;;;6230856;28;20441;-53
2022/10/30 14:29:43;;;;;;;0.10;0.10;;;23.30;60.60;;;;;;6214433;28;20043;-50
2022/10/30 14:32:50;;;;;;;0.10;0.10;;;23.40;60.50;;;;;;6199512;28;20694;-49
2022/10/30 14:36:16;;;;;;;0.10;0.10;;;23.20;60.50;;;;;;6215359;28;20056;-50
2022/10/30 14:39:28;;;;;;;0.20;0.10;;;23.00;60.40;;;;;;6214954;28;20258;-50
2022/10/30 14:42:36;;;;;;;0.10;0.10;;;23.30;60.60;;;;;;6231643;28;20154;-51
2022/10/30 14:45:43;;;;;;;0.47;0.20;;;23.30;60.50;;;;;;6228554;28;20577;-48
2022/10/30 14:48:52;;;;;;;0.10;0.10;;;23.20;60.50;;;;;;6228888;28;21684;-51
2022/10/30 14:52:07;;;;;;;0.10;0.10;;;23.40;60.50;;;;;;6220800;28;20345;-52
2022/10/30 14:55:24;;;;;;;0.20;0.10;;;23.30;60.50;;;;;;6227730;28;20050;-50
2022/10/30 14:58:28;;;;;;;0.28;0.20;;;22.90;60.30;;;;;;6213889;28;20456;-50
2022/10/30 15:01:36;;;;;;;0.13;0.10;;;23.00;60.20;;;;;;6217918;28;20056;-48
2022/10/30 15:04:55;;;;;;;0.10;0.10;;;22.80;59.90;;;;;;6229777;28;20434;-53
2022/10/30 15:08:14;;;;;;;0.40;0.20;;;23.00;60.00;;;;;;6231592;28;20304;-54
2022/10/30 15:11:49;;;;;;;0.20;0.20;;;23.20;60.00;;;;;;6223260;28;20907;-50
2022/10/30 15:14:55;;;;;;;0.20;0.20;;;23.10;59.90;;;;;;6212602;28;20227;-49
2022/10/30 15:18:00;;;;;;;0.10;0.10;;;23.50;60.00;;;;;;6226200;28;20354;-49
2022/10/30 15:21:04;;;;;;;0.10;0.10;;;23.00;59.60;;;;;;6230972;28;20044;-54
2022/10/30 15:24:12;;;;;;;0.20;0.20;;;23.10;59.60;;;;;;6229584;28;20100;-53
2022/10/30 15:27:17;;;;;;;0.20;0.10;;;23.50;59.70;;;;;;6213597;28;20059;-51
2022/10/30 15:30:24;;;;;;;0.10;0.10;;;23.10;59.40;;;;;;6208922;28;20382;-51
2022/10/30 15:33:26;;;;;;;0.28;0.10;;;23.10;59.30;;;;;;6228334;28;20143;-50
2022/10/30 15:36:34;;;;;;;0.13;0.13;;;23.10;59.20;;;;;;6211469;28;20043;-50
2022/10/30 15:39:36;;;;;;;0.30;0.20;;;23.40;59.20;;;;;;6210218;28;20713;-51
2022/10/30 15:42:39;;;;;;;0.10;0.10;;;23.10;59.00;;;;;;6221279;28;20877;-53
2022/10/30 15:45:43;;;;;;;0.20;0.20;;;23.60;59.10;;;;;;6233051;28;20051;-53
2022/10/30 15:48:46;;;;;;;0.28;0.15;;;23.40;58.90;;;;;;6217060;28;22048;-53
2022/10/30 15:51:47;;;;;;;0.20;0.20;;;23.40;58.80;;;;;;6234135;28;20647;-51
2022/10/30 15:54:56;;;;;;;0.20;0.10;;;23.40;58.70;;;;;;6227470;28;20044;-53
2022/10/30 15:58:01;;;;;;;0.45;0.10;;;23.40;58.50;;;;;;6223632;28;20143;-49
2022/10/30 16:01:05;;;;;;;0.30;0.20;;;23.10;58.20;;;;;;6208365;28;20680;-54
2022/10/30 16:04:14;;;;;;;0.40;0.20;;;23.20;58.40;;;;;;6232033;28;20151;-50
2022/10/30 16:07:18;;;;;;;0.50;0.10;;;23.50;58.20;;;;;;6215245;28;20070;-52
2022/10/30 16:10:22;;;;;;;0.25;0.15;;;23.30;58.60;;;;;;6218907;28;20794;-53
2022/10/30 16:13:29;;;;;;;0.20;0.10;;;23.40;57.90;;;;;;6215370;28;20079;-51
2022/10/30 16:16:31;;;;;;;0.20;0.20;;;23.40;57.80;;;;;;6223429;28;21405;-53
2022/10/30 16:19:38;;;;;;;0.10;0.10;;;23.20;57.70;;;;;;6228469;28;20580;-51
2022/10/30 16:22:40;;;;;;;0.28;0.20;;;23.50;57.60;;;;;;6229440;28;21355;-49